createdAt,value
2023-04-25T00:00:56.843Z,7.39
2023-04-25T00:03:26.493Z,7.40
2023-04-25T00:05:53.944Z,7.41
2023-04-25T00:08:21.506Z,7.41
2023-04-25T00:10:50.024Z,7.41
2023-04-25T00:13:18.630Z,7.41
2023-04-25T00:15:47.507Z,7.35
2023-04-25T00:18:14.639Z,7.30
2023-04-25T00:20:41.664Z,7.26
2023-04-25T00:23:09.038Z,7.25
2023-04-25T00:25:36.091Z,7.24
2023-04-25T00:28:03.189Z,7.23
2023-04-25T00:30:30.181Z,7.20
2023-04-25T00:32:57.262Z,7.17
2023-04-25T00:35:24.354Z,7.13
2023-04-25T00:37:51.653Z,7.10
2023-04-25T00:40:18.695Z,7.09
2023-04-25T00:42:45.882Z,7.07
2023-04-25T00:45:15.019Z,7.01
2023-04-25T00:47:42.869Z,6.96
2023-04-25T00:50:10.156Z,6.90
2023-04-25T00:52:39.247Z,6.85
2023-04-25T00:55:06.578Z,6.80
2023-04-25T00:57:33.639Z,6.76
2023-04-25T01:00:00.719Z,6.73
2023-04-25T01:02:28.931Z,6.74
2023-04-25T01:04:57.270Z,6.72
2023-04-25T01:07:24.408Z,6.70
2023-04-25T01:09:52.703Z,6.65
2023-04-25T01:12:19.760Z,6.60
2023-04-25T01:14:47.101Z,6.57
2023-04-25T01:17:14.284Z,6.54
2023-04-25T01:19:41.366Z,6.48
2023-04-25T01:22:08.444Z,6.43
2023-04-25T01:24:36.628Z,6.38
2023-04-25T01:27:03.865Z,6.36
2023-04-25T01:29:31.415Z,6.37
2023-04-25T01:31:59.818Z,6.35
2023-04-25T01:34:26.920Z,6.37
2023-04-25T01:36:54.313Z,6.39
2023-04-25T01:39:21.666Z,6.36
2023-04-25T01:41:48.868Z,6.33
2023-04-25T01:44:16.581Z,6.27
2023-04-25T01:46:43.667Z,6.21
2023-04-25T01:49:11.899Z,6.21
2023-04-25T01:51:39.524Z,6.23
2023-04-25T01:54:06.695Z,6.21
2023-04-25T01:56:34.482Z,6.21
2023-04-25T01:59:01.855Z,6.19
2023-04-25T02:01:46.170Z,6.20
2023-04-25T02:04:20.960Z,6.21
2023-04-25T02:06:48.439Z,6.19
2023-04-25T02:09:16.608Z,6.17
2023-04-25T02:11:48.335Z,6.17
2023-04-25T02:14:27.489Z,6.13
2023-04-25T02:17:08.376Z,6.13
2023-04-25T02:19:35.627Z,6.14
2023-04-25T02:22:02.659Z,6.15
2023-04-25T02:24:29.690Z,6.15
2023-04-25T02:26:57.424Z,6.13
2023-04-25T02:29:24.543Z,6.08
2023-04-25T02:31:51.672Z,6.03
2023-04-25T02:34:18.734Z,6.02
2023-04-25T02:36:46.120Z,6.00
2023-04-25T02:39:13.215Z,5.98
2023-04-25T02:41:40.300Z,6.00
2023-04-25T02:44:07.392Z,6.03
2023-04-25T02:46:39.473Z,6.06
2023-04-25T02:49:07.860Z,6.07
2023-04-25T02:51:35.412Z,6.10
2023-04-25T02:54:02.473Z,6.12
2023-04-25T02:56:29.879Z,6.09
2023-04-25T02:58:57.641Z,6.08
2023-04-25T03:01:24.854Z,6.06
2023-04-25T03:03:52.268Z,6.02
2023-04-25T03:06:19.800Z,5.99
2023-04-25T03:08:46.771Z,6.01
2023-04-25T03:11:13.768Z,6.05
2023-04-25T03:13:42.458Z,6.10
2023-04-25T03:16:09.847Z,6.12
2023-04-25T03:18:36.866Z,6.17
2023-04-25T03:21:03.961Z,6.24
2023-04-25T03:23:31.701Z,6.34
2023-04-25T03:25:58.838Z,6.45
2023-04-25T03:28:26.613Z,6.54
2023-04-25T03:30:55.398Z,6.61
2023-04-25T03:33:23.005Z,6.70
2023-04-25T03:35:51.283Z,6.77
2023-04-25T03:38:18.748Z,6.86
2023-04-25T03:40:45.995Z,6.96
2023-04-25T03:43:34.866Z,7.09
2023-04-25T03:46:05.290Z,7.18
2023-04-25T03:48:32.372Z,7.28
2023-04-25T03:50:59.427Z,7.38
2023-04-25T03:53:26.638Z,7.48
2023-04-25T03:56:13.882Z,7.58
2023-04-25T03:58:41.413Z,7.64
2023-04-25T04:01:08.991Z,7.69
2023-04-25T04:03:37.661Z,7.76
2023-04-25T04:06:06.796Z,7.83
2023-04-25T04:08:37.278Z,7.89
2023-04-25T04:11:04.520Z,7.98
2023-04-25T04:13:32.608Z,8.09
2023-04-25T04:16:00.339Z,8.17
2023-04-25T04:18:27.501Z,8.23
2023-04-25T04:20:57.022Z,8.31
2023-04-25T04:23:24.436Z,8.41
2023-04-25T04:25:51.983Z,8.51
2023-04-25T04:28:19.042Z,8.62
2023-04-25T04:30:58.955Z,8.74
2023-04-25T04:33:26.883Z,8.83
2023-04-25T04:36:00.288Z,8.88
2023-04-25T04:38:28.383Z,8.96
2023-04-25T04:40:58.322Z,9.05
2023-04-25T04:43:34.629Z,9.15
2023-04-25T04:46:29.328Z,9.26
2023-04-25T04:49:15.095Z,9.38
2023-04-25T04:51:48.353Z,9.50
2023-04-25T04:54:36.851Z,9.62
2023-04-25T04:57:34.288Z,9.75
2023-04-25T05:00:37.066Z,9.87
2023-04-25T05:03:33.354Z,9.96
2023-04-25T05:06:03.581Z,10.08
2023-04-25T05:08:45.244Z,10.17
2023-04-25T05:11:35.369Z,10.25
2023-04-25T05:14:21.305Z,10.37
2023-04-25T05:17:09.678Z,10.52
2023-04-25T05:19:58.788Z,10.71
2023-04-25T05:22:35.824Z,10.91
2023-04-25T05:25:35.560Z,11.12
2023-04-25T05:28:14.385Z,11.29
2023-04-25T05:31:01.309Z,11.54
2023-04-25T05:33:39.793Z,11.77
2023-04-25T05:36:07.817Z,11.96
2023-04-25T05:38:35.095Z,12.15
2023-04-25T05:41:22.600Z,12.36
2023-04-25T05:43:57.965Z,12.52
2023-04-25T05:46:30.373Z,12.71
2023-04-25T05:49:12.013Z,12.95
2023-04-25T05:52:08.305Z,13.17
2023-04-25T05:54:44.542Z,13.31
2023-04-25T05:57:28.619Z,13.31
2023-04-25T05:59:57.134Z,13.25
2023-04-25T06:02:40.490Z,13.22
2023-04-25T06:05:09.741Z,13.21
2023-04-25T06:07:37.132Z,13.25
2023-04-25T06:10:07.547Z,13.38
2023-04-25T06:12:34.715Z,13.51
2023-04-25T06:15:02.253Z,13.60
2023-04-25T06:17:31.809Z,13.70
2023-04-25T06:19:59.349Z,13.78
2023-04-25T06:22:26.378Z,13.83
2023-04-25T06:24:53.629Z,13.91
2023-04-25T06:27:20.786Z,13.99
2023-04-25T06:29:47.890Z,14.03
2023-04-25T06:32:15.406Z,14.07
2023-04-25T06:34:42.398Z,14.13
2023-04-25T06:37:09.581Z,14.17
2023-04-25T06:39:37.647Z,14.26
2023-04-25T06:42:06.424Z,14.31
2023-04-25T06:44:48.670Z,14.29
2023-04-25T06:47:16.108Z,14.34
2023-04-25T06:49:43.236Z,14.49
2023-04-25T06:52:11.933Z,14.70
2023-04-25T06:54:39.368Z,14.91
2023-04-25T06:57:25.460Z,15.14
2023-04-25T06:59:52.723Z,15.33
2023-04-25T07:02:19.994Z,15.40
2023-04-25T07:04:47.528Z,15.42
2023-04-25T07:07:15.265Z,15.43
2023-04-25T07:09:46.927Z,15.36
2023-04-25T07:12:13.916Z,15.26
2023-04-25T07:14:40.990Z,15.18
2023-04-25T07:17:08.531Z,15.23
2023-04-25T07:19:35.980Z,15.34
2023-04-25T07:22:03.423Z,15.39
2023-04-25T07:24:30.572Z,15.50
2023-04-25T07:26:57.760Z,15.64
2023-04-25T07:29:32.235Z,15.91
2023-04-25T07:32:00.276Z,16.15
2023-04-25T07:34:27.410Z,16.26
2023-04-25T07:36:55.071Z,16.37
2023-04-25T07:39:24.430Z,16.54
2023-04-25T07:41:54.501Z,16.66
2023-04-25T07:44:24.728Z,16.69
2023-04-25T07:46:51.719Z,16.67
2023-04-25T07:49:18.831Z,16.64
2023-04-25T07:51:46.018Z,16.69
2023-04-25T07:54:15.819Z,16.77
2023-04-25T07:56:52.509Z,16.89
2023-04-25T07:59:21.459Z,16.98
2023-04-25T08:01:48.740Z,17.04
2023-04-25T08:04:16.540Z,17.17
2023-04-25T08:06:55.039Z,17.34
2023-04-25T08:09:26.245Z,17.41
2023-04-25T08:11:53.609Z,17.51
2023-04-25T08:14:24.611Z,17.62
2023-04-25T08:16:52.201Z,17.65
2023-04-25T08:19:20.395Z,17.58
2023-04-25T08:21:47.588Z,17.61
2023-04-25T08:24:17.692Z,17.75
2023-04-25T08:26:45.512Z,17.89
2023-04-25T08:29:16.075Z,18.00
2023-04-25T08:31:43.701Z,18.14
2023-04-25T08:37:12.143Z,18.44
2023-04-25T08:39:54.896Z,18.44
2023-04-25T08:42:43.959Z,18.38
2023-04-25T08:45:11.656Z,18.38
2023-04-25T08:47:40.925Z,18.43
2023-04-25T08:50:08.626Z,18.43
2023-04-25T08:52:44.656Z,18.45
2023-04-25T08:55:13.204Z,18.51
2023-04-25T08:57:44.016Z,18.57
2023-04-25T09:00:13.600Z,18.69
2023-04-25T09:02:42.603Z,18.81
2023-04-25T09:05:11.172Z,18.96
2023-04-25T09:07:38.303Z,19.16
2023-04-25T09:10:06.181Z,19.41
2023-04-25T09:12:36.496Z,19.51
2023-04-25T09:15:08.389Z,19.52
2023-04-25T09:17:59.247Z,19.45
2023-04-25T09:20:31.822Z,19.42
2023-04-25T09:23:03.808Z,19.42
2023-04-25T09:25:41.388Z,19.29
2023-04-25T09:28:09.901Z,19.30
2023-04-25T09:30:37.586Z,19.36
2023-04-25T09:33:14.084Z,19.39
2023-04-25T09:35:46.433Z,19.45
2023-04-25T09:38:22.870Z,19.45
2023-04-25T09:40:57.855Z,19.28
2023-04-25T09:43:33.214Z,18.97
2023-04-25T09:46:01.657Z,18.86
2023-04-25T09:48:29.921Z,18.79
2023-04-25T09:51:12.487Z,18.66
2023-04-25T09:53:44.290Z,18.46
2023-04-25T09:56:19.265Z,18.29
2023-04-25T09:58:46.410Z,18.29
2023-04-25T10:01:14.355Z,18.31
2023-04-25T10:03:48.856Z,18.38
2023-04-25T10:06:35.953Z,18.59
2023-04-25T10:09:04.970Z,18.93
2023-04-25T10:11:32.028Z,19.31
2023-04-25T10:13:59.039Z,19.66
2023-04-25T10:16:26.352Z,19.78
2023-04-25T10:18:53.584Z,19.79
2023-04-25T10:21:21.352Z,19.91
2023-04-25T10:23:48.572Z,20.03
2023-04-25T10:26:16.062Z,20.17
2023-04-25T10:28:59.850Z,20.21
2023-04-25T10:31:27.159Z,20.35
2023-04-25T10:33:54.768Z,20.58
2023-04-25T10:36:23.785Z,20.79
2023-04-25T10:38:52.065Z,20.82
2023-04-25T10:41:20.277Z,20.77
2023-04-25T10:43:48.036Z,21.06
2023-04-25T10:46:35.103Z,21.41
2023-04-25T10:49:03.107Z,21.49
2023-04-25T10:51:47.329Z,21.64
2023-04-25T10:54:21.415Z,22.19
2023-04-25T10:56:49.764Z,22.65
2023-04-25T10:59:18.353Z,22.94
2023-04-25T11:01:46.132Z,23.27
2023-04-25T11:04:40.071Z,23.57
2023-04-25T11:07:36.393Z,23.45
2023-04-25T11:10:05.449Z,23.32
2023-04-25T11:12:33.096Z,23.25
2023-04-25T11:15:02.515Z,23.23
2023-04-25T11:17:29.867Z,23.22
2023-04-25T11:19:57.643Z,23.02
2023-04-25T11:22:24.769Z,22.70
2023-04-25T11:24:52.358Z,22.40
2023-04-25T11:27:19.508Z,21.96
2023-04-25T11:29:49.241Z,21.67
2023-04-25T11:32:17.830Z,21.64
2023-04-25T11:34:46.668Z,21.82
2023-04-25T11:37:14.019Z,22.07
2023-04-25T11:39:46.536Z,21.95
2023-04-25T11:42:14.100Z,21.67
2023-04-25T11:44:41.902Z,21.64
2023-04-25T11:47:08.954Z,21.67
2023-04-25T11:49:37.051Z,21.80
2023-04-25T11:52:04.338Z,22.01
2023-04-25T11:54:31.531Z,22.10
2023-04-25T11:56:58.529Z,22.14
2023-04-25T11:59:26.598Z,22.16
2023-04-25T12:01:53.891Z,22.54
2023-04-25T12:04:24.991Z,22.98
2023-04-25T12:06:56.269Z,23.13
2023-04-25T12:09:31.696Z,23.31
2023-04-25T12:12:00.050Z,23.19
2023-04-25T12:14:30.540Z,22.83
2023-04-25T12:16:59.373Z,22.60
2023-04-25T12:19:27.117Z,22.59
2023-04-25T12:21:58.611Z,22.64
2023-04-25T12:24:28.737Z,22.87
2023-04-25T12:27:11.514Z,23.13
2023-04-25T12:29:49.307Z,23.18
2023-04-25T12:32:18.247Z,23.09
2023-04-25T12:34:46.187Z,22.80
2023-04-25T12:37:13.404Z,22.41
2023-04-25T12:39:40.878Z,21.95
2023-04-25T12:42:10.009Z,21.62
2023-04-25T12:44:37.587Z,21.33
2023-04-25T12:47:04.845Z,20.96
2023-04-25T12:49:32.098Z,20.86
2023-04-25T12:51:59.335Z,20.97
2023-04-25T12:54:27.068Z,21.10
2023-04-25T12:56:54.190Z,21.19
2023-04-25T12:59:22.484Z,21.21
2023-04-25T13:01:49.593Z,21.22
2023-04-25T13:04:17.402Z,21.27
2023-04-25T13:06:44.807Z,21.29
2023-04-25T13:09:13.847Z,21.21
2023-04-25T13:11:42.559Z,20.92
2023-04-25T13:14:09.652Z,20.86
2023-04-25T13:16:36.864Z,21.08
2023-04-25T13:19:03.885Z,21.52
2023-04-25T13:21:34.031Z,21.88
2023-04-25T13:24:01.206Z,22.08
2023-04-25T13:26:28.276Z,22.12
2023-04-25T13:28:55.382Z,22.16
2023-04-25T13:31:22.474Z,22.28
2023-04-25T13:33:50.134Z,22.42
2023-04-25T13:36:17.486Z,22.41
2023-04-25T13:38:46.176Z,22.03
2023-04-25T13:41:18.991Z,21.45
2023-04-25T13:43:49.151Z,20.98
2023-04-25T13:46:35.437Z,20.41
2023-04-25T13:49:12.924Z,19.86
2023-04-25T13:51:41.712Z,19.60
2023-04-25T13:54:08.918Z,19.34
2023-04-25T13:56:36.260Z,19.07
2023-04-25T13:59:03.248Z,18.92
2023-04-25T14:01:32.290Z,18.80
2023-04-25T14:03:59.630Z,18.68
2023-04-25T14:06:27.102Z,18.49
2023-04-25T14:08:55.045Z,18.28
2023-04-25T14:11:22.254Z,18.16
2023-04-25T14:13:50.617Z,18.14
2023-04-25T14:16:18.232Z,18.27
2023-04-25T14:18:45.451Z,18.51
2023-04-25T14:21:12.542Z,18.78
2023-04-25T14:23:39.623Z,19.07
2023-04-25T14:26:06.845Z,19.35
2023-04-25T14:28:33.920Z,19.62
2023-04-25T14:31:02.019Z,19.67
2023-04-25T14:33:29.034Z,19.77
2023-04-25T14:35:56.265Z,19.83
2023-04-25T14:38:24.624Z,19.86
2023-04-25T14:40:52.128Z,20.00
2023-04-25T14:43:19.092Z,20.27
2023-04-25T14:45:46.285Z,20.56
2023-04-25T14:48:13.525Z,20.81
2023-04-25T14:50:40.736Z,20.90
2023-04-25T14:53:08.046Z,20.98
2023-04-25T14:55:35.032Z,21.17
2023-04-25T14:58:02.281Z,21.24
2023-04-25T15:00:29.457Z,21.19
2023-04-25T15:02:57.227Z,21.08
2023-04-25T15:05:24.566Z,20.91
2023-04-25T15:07:51.970Z,20.79
2023-04-25T15:10:19.542Z,20.72
2023-04-25T15:12:47.887Z,20.52
2023-04-25T15:15:22.759Z,20.28
2023-04-25T15:17:56.486Z,20.22
2023-04-25T15:20:25.735Z,20.21
2023-04-25T15:22:52.728Z,20.12
2023-04-25T15:25:19.755Z,20.03
2023-04-25T15:27:49.594Z,20.02
2023-04-25T15:30:17.810Z,19.98
2023-04-25T15:32:48.651Z,19.93
2023-04-25T15:35:16.487Z,19.81
2023-04-25T15:37:43.636Z,19.66
2023-04-25T15:40:16.839Z,19.52
2023-04-25T15:42:48.114Z,19.39
2023-04-25T15:45:15.801Z,19.29
2023-04-25T15:47:43.240Z,19.20
2023-04-25T15:50:11.697Z,19.13
2023-04-25T15:52:39.027Z,19.05
2023-04-25T15:55:06.608Z,18.97
2023-04-25T15:57:34.333Z,18.91
2023-04-25T16:00:02.387Z,18.82
2023-04-25T16:02:39.738Z,18.69
2023-04-25T16:05:07.464Z,18.52
2023-04-25T16:07:35.166Z,18.26
2023-04-25T16:10:02.213Z,18.00
2023-04-25T16:12:31.240Z,17.81
2023-04-25T16:14:58.434Z,17.59
2023-04-25T16:17:26.007Z,17.36
2023-04-25T16:19:53.527Z,17.14
2023-04-25T16:22:21.062Z,16.97
2023-04-25T16:24:48.103Z,16.81
2023-04-25T16:27:15.255Z,16.69
2023-04-25T16:29:42.671Z,16.58
2023-04-25T16:32:09.655Z,16.48
2023-04-25T16:34:36.677Z,16.40
2023-04-25T16:37:03.712Z,16.30
2023-04-25T16:39:30.837Z,16.20
2023-04-25T16:41:57.881Z,16.08
2023-04-25T16:44:24.934Z,15.96
2023-04-25T16:46:52.661Z,15.85
2023-04-25T16:49:19.772Z,15.74
2023-04-25T16:51:47.377Z,15.64
2023-04-25T16:54:14.366Z,15.54
2023-04-25T16:56:42.031Z,15.43
2023-04-25T16:59:09.096Z,15.34
2023-04-25T17:01:36.947Z,15.22
2023-04-25T17:04:04.074Z,15.12
2023-04-25T17:06:31.343Z,15.05
2023-04-25T17:08:58.407Z,14.98
2023-04-25T17:11:25.668Z,14.92
2023-04-25T17:13:52.717Z,14.89
2023-04-25T17:16:23.283Z,14.86
2023-04-25T17:18:53.631Z,14.84
2023-04-25T17:21:20.973Z,14.81
2023-04-25T17:23:48.042Z,14.78
2023-04-25T17:26:15.227Z,14.76
2023-04-25T17:28:45.359Z,14.72
2023-04-25T17:31:12.801Z,14.69
2023-04-25T17:33:39.908Z,14.67
2023-04-25T17:36:07.407Z,14.65
2023-04-25T17:38:35.903Z,14.65
2023-04-25T17:41:02.891Z,14.64
2023-04-25T17:43:30.068Z,14.61
2023-04-25T17:45:57.163Z,14.57
2023-04-25T17:48:25.174Z,14.53
2023-04-25T17:50:52.283Z,14.48
2023-04-25T17:53:19.355Z,14.44
2023-04-25T17:55:46.380Z,14.39
2023-04-25T17:58:13.360Z,14.34
2023-04-25T18:00:40.612Z,14.28
2023-04-25T18:03:07.849Z,14.20
2023-04-25T18:05:35.099Z,14.11
2023-04-25T18:08:02.187Z,14.01
2023-04-25T18:10:29.197Z,13.91
2023-04-25T18:12:56.215Z,13.84
2023-04-25T18:15:23.336Z,13.77
2023-04-25T18:17:50.495Z,13.73
2023-04-25T18:20:17.588Z,13.71
2023-04-25T18:22:45.707Z,13.69
2023-04-25T18:25:14.568Z,13.66
2023-04-25T18:27:41.818Z,13.59
2023-04-25T18:30:11.092Z,13.55
2023-04-25T18:32:38.516Z,13.53
2023-04-25T18:35:06.218Z,13.50
2023-04-25T18:37:33.615Z,13.45
2023-04-25T18:40:06.350Z,13.41
2023-04-25T18:42:35.096Z,13.38
2023-04-25T18:45:02.047Z,13.35
2023-04-25T18:47:29.280Z,13.30
2023-04-25T18:49:56.345Z,13.22
2023-04-25T18:52:23.400Z,13.18
2023-04-25T18:54:50.698Z,13.16
2023-04-25T18:57:18.197Z,13.13
2023-04-25T18:59:46.412Z,13.10
2023-04-25T19:02:16.261Z,13.09
2023-04-25T19:04:44.001Z,13.07
2023-04-25T19:07:11.531Z,13.05
2023-04-25T19:09:38.562Z,13.02
2023-04-25T19:12:05.819Z,13.00
2023-04-25T19:14:33.670Z,12.97
2023-04-25T19:17:01.092Z,12.90
2023-04-25T19:19:28.322Z,12.83
2023-04-25T19:21:55.421Z,12.73
2023-04-25T19:24:22.888Z,12.66
2023-04-25T19:26:49.924Z,12.59
2023-04-25T19:29:17.371Z,12.54
2023-04-25T19:31:44.886Z,12.51
2023-04-25T19:34:13.180Z,12.48
2023-04-25T19:36:41.638Z,12.45
2023-04-25T19:39:08.814Z,12.42
2023-04-25T19:41:37.279Z,12.37
2023-04-25T19:44:06.332Z,12.30
2023-04-25T19:46:33.796Z,12.20
2023-04-25T19:49:01.655Z,12.08
2023-04-25T19:51:28.858Z,11.98
2023-04-25T19:53:56.020Z,11.89
2023-04-25T19:56:23.743Z,11.85
2023-04-25T19:58:51.651Z,11.81
2023-04-25T20:01:22.368Z,11.75
2023-04-25T20:03:52.221Z,11.71
2023-04-25T20:06:19.731Z,11.65
2023-04-25T20:08:47.548Z,11.57
2023-04-25T20:11:15.211Z,11.45
2023-04-25T20:13:42.237Z,11.36
2023-04-25T20:16:09.317Z,11.28
2023-04-25T20:18:36.371Z,11.23
2023-04-25T20:21:03.445Z,11.20
2023-04-25T20:23:30.518Z,11.20
2023-04-25T20:25:57.626Z,11.20
2023-04-25T20:28:24.753Z,11.18
2023-04-25T20:30:51.810Z,11.13
2023-04-25T20:33:18.912Z,11.02
2023-04-25T20:35:46.790Z,10.88
2023-04-25T20:38:14.190Z,10.73
2023-04-25T20:40:41.471Z,10.60
2023-04-25T20:43:11.317Z,10.50
2023-04-25T20:45:39.874Z,10.40
2023-04-25T20:48:07.066Z,10.32
2023-04-25T20:50:34.290Z,10.24
2023-04-25T20:54:52.320Z,10.14
2023-04-25T20:57:19.422Z,10.07
2023-04-25T20:59:48.273Z,10.03
2023-04-25T21:02:16.099Z,10.01
2023-04-25T21:04:46.689Z,10.00
2023-04-25T21:07:13.919Z,10.00
2023-04-25T21:09:42.764Z,9.99
2023-04-25T21:12:09.822Z,9.99
2023-04-25T21:14:36.799Z,10.00
2023-04-25T21:17:04.548Z,9.98
2023-04-25T21:19:31.880Z,9.94
2023-04-25T21:21:58.957Z,9.90
2023-04-25T21:24:27.496Z,9.85
2023-04-25T21:26:54.645Z,9.80
2023-04-25T21:29:21.640Z,9.76
2023-04-25T21:31:49.117Z,9.71
2023-04-25T21:34:16.153Z,9.63
2023-04-25T21:36:44.473Z,9.53
2023-04-25T21:39:11.657Z,9.46
2023-04-25T21:41:38.730Z,9.42
2023-04-25T21:44:06.724Z,9.38
2023-04-25T21:46:34.235Z,9.26
2023-04-25T21:49:01.284Z,9.13
2023-04-25T21:51:29.281Z,9.00
2023-04-25T21:53:56.542Z,8.89
2023-04-25T21:56:23.587Z,8.80
2023-04-25T21:58:50.958Z,8.76
2023-04-25T22:01:18.387Z,8.76
2023-04-25T22:03:45.637Z,8.76
2023-04-25T22:06:12.926Z,8.77
2023-04-25T22:08:39.984Z,8.76
2023-04-25T22:11:08.422Z,8.71
2023-04-25T22:13:36.157Z,8.68
2023-04-25T22:16:03.374Z,8.67
2023-04-25T22:18:30.670Z,8.64
2023-04-25T22:20:57.663Z,8.62
2023-04-25T22:23:25.732Z,8.59
2023-04-25T22:25:52.937Z,8.57
2023-04-25T22:28:20.692Z,8.55
2023-04-25T22:30:47.747Z,8.52
2023-04-25T22:33:14.930Z,8.51
2023-04-25T22:35:42.453Z,8.47
2023-04-25T22:38:09.817Z,8.43
2023-04-25T22:40:37.025Z,8.40
2023-04-25T22:43:04.084Z,8.37
2023-04-25T22:45:31.580Z,8.32
2023-04-25T22:47:58.856Z,8.28
2023-04-25T22:50:27.297Z,8.24
2023-04-25T22:52:55.362Z,8.21
2023-04-25T22:55:22.877Z,8.19
2023-04-25T22:57:49.942Z,8.16
2023-04-25T23:00:20.151Z,8.12
2023-04-25T23:02:48.203Z,8.08
2023-04-25T23:05:15.730Z,8.01
2023-04-25T23:07:43.915Z,7.94
2023-04-25T23:10:11.251Z,7.89
2023-04-25T23:12:39.000Z,7.85
2023-04-25T23:15:07.453Z,7.82
2023-04-25T23:17:34.509Z,7.79
2023-04-25T23:20:01.680Z,7.79
2023-04-25T23:22:28.679Z,7.77
2023-04-25T23:24:56.109Z,7.72
2023-04-25T23:27:23.098Z,7.67
2023-04-25T23:29:57.571Z,7.62
2023-04-25T23:32:26.421Z,7.58
2023-04-25T23:34:53.691Z,7.54
2023-04-25T23:37:20.742Z,7.47
2023-04-25T23:39:50.253Z,7.38
2023-04-25T23:42:18.341Z,7.30
2023-04-25T23:44:45.475Z,7.25
2023-04-25T23:47:14.341Z,7.22
2023-04-25T23:49:41.727Z,7.19
2023-04-25T23:52:08.717Z,7.15
2023-04-25T23:54:35.909Z,7.10
2023-04-25T23:57:04.693Z,7.03
2023-04-25T23:59:32.162Z,6.98
